Stringtown, Illinois
Current Conditions -  °F | °C
As of 5:55 PM on Saturday 22 Nov 2014 (Local Time) from KENL Reporting Station
Light Rain Light Rain  
Wind Chill: 55°   Ceiling: 7500
Heat Index: 55°   Visibility: 10mi
Dew Point: 45°   Wind: 8mph
Humidity: 69%   Direction: 180°S
Pressure: 30"   Gusts: NA
Location:  38.8463°N, 89.0894°W
Report Text: KENL 222355Z AUTO 18007KT 10SM -RA BKN075 OVC090 13/07 A3000 RMK AO2 T01250070 10158 20125
Loading
Personal Weather Stations






























Interactive Weather Map New forecast layout! Learn more

10-Day Weather Forecast

Advertisements
Track Severe Weather on mobile